sensor_id;sensor_type;location;lat;lon;timestamp;temperature;humidity
43679;DHT22;29279;50.858;4.392;2023-08-01T00:01:31;16.80;99.90
43679;DHT22;29279;50.858;4.392;2023-08-01T00:03:57;16.70;99.90
43679;DHT22;29279;50.858;4.392;2023-08-01T00:06:23;16.70;99.90
43679;DHT22;29279;50.858;4.392;2023-08-01T00:08:50;16.70;99.90
43679;DHT22;29279;50.858;4.392;2023-08-01T00:11:16;16.80;99.90
43679;DHT22;29279;50.858;4.392;2023-08-01T00:13:42;16.90;99.90
43679;DHT22;29279;50.858;4.392;2023-08-01T00:16:09;16.90;99.90
43679;DHT22;29279;50.858;4.392;2023-08-01T00:18:34;16.90;99.90
43679;DHT22;29279;50.858;4.392;2023-08-01T00:21:00;16.90;99.90
43679;DHT22;29279;50.858;4.392;2023-08-01T00:23:26;16.90;99.90
43679;DHT22;29279;50.858;4.392;2023-08-01T00:25:51;16.90;99.90
43679;DHT22;29279;50.858;4.392;2023-08-01T00:28:18;16.90;99.90
43679;DHT22;29279;50.858;4.392;2023-08-01T00:30:44;16.90;99.90
43679;DHT22;29279;50.858;4.392;2023-08-01T00:33:09;16.90;99.90
43679;DHT22;29279;50.858;4.392;2023-08-01T00:35:35;16.90;99.90
43679;DHT22;29279;50.858;4.392;2023-08-01T00:38:01;16.90;99.90
43679;DHT22;29279;50.858;4.392;2023-08-01T00:40:33;16.80;99.90
43679;DHT22;29279;50.858;4.392;2023-08-01T00:42:59;16.80;99.90
43679;DHT22;29279;50.858;4.392;2023-08-01T00:45:26;16.70;99.90
43679;DHT22;29279;50.858;4.392;2023-08-01T00:47:53;16.80;99.90
43679;DHT22;29279;50.858;4.392;2023-08-01T00:50:19;16.80;99.90
43679;DHT22;29279;50.858;4.392;2023-08-01T00:52:46;16.80;99.90
43679;DHT22;29279;50.858;4.392;2023-08-01T00:55:13;16.90;99.90
43679;DHT22;29279;50.858;4.392;2023-08-01T00:57:40;17.10;99.90
43679;DHT22;29279;50.858;4.392;2023-08-01T01:00:06;17.00;99.90
43679;DHT22;29279;50.858;4.392;2023-08-01T01:02:32;17.00;99.90
43679;DHT22;29279;50.858;4.392;2023-08-01T01:04:57;17.10;99.90
43679;DHT22;29279;50.858;4.392;2023-08-01T01:07:24;17.20;99.90
43679;DHT22;29279;50.858;4.392;2023-08-01T01:09:52;17.10;99.90
43679;DHT22;29279;50.858;4.392;2023-08-01T01:12:18;17.10;99.90
43679;DHT22;29279;50.858;4.392;2023-08-01T01:14:44;17.10;99.90
43679;DHT22;29279;50.858;4.392;2023-08-01T01:17:09;17.00;99.90
43679;DHT22;29279;50.858;4.392;2023-08-01T01:19:35;17.00;99.90
43679;DHT22;29279;50.858;4.392;2023-08-01T01:22:03;16.90;99.90
43679;DHT22;29279;50.858;4.392;2023-08-01T01:24:30;16.90;99.90
43679;DHT22;29279;50.858;4.392;2023-08-01T01:26:57;16.90;99.90
43679;DHT22;29279;50.858;4.392;2023-08-01T01:29:26;17.00;99.90
43679;DHT22;29279;50.858;4.392;2023-08-01T01:31:52;16.90;99.90
43679;DHT22;29279;50.858;4.392;2023-08-01T01:34:19;16.90;99.90
43679;DHT22;29279;50.858;4.392;2023-08-01T01:36:44;16.80;99.90
43679;DHT22;29279;50.858;4.392;2023-08-01T01:39:10;16.80;99.90
43679;DHT22;29279;50.858;4.392;2023-08-01T01:41:36;16.80;99.90
43679;DHT22;29279;50.858;4.392;2023-08-01T01:44:01;16.80;99.90
43679;DHT22;29279;50.858;4.392;2023-08-01T01:46:27;16.70;99.90
43679;DHT22;29279;50.858;4.392;2023-08-01T01:48:53;16.80;99.90
43679;DHT22;29279;50.858;4.392;2023-08-01T01:51:20;16.80;99.90
43679;DHT22;29279;50.858;4.392;2023-08-01T01:53:46;16.70;99.90
43679;DHT22;29279;50.858;4.392;2023-08-01T01:56:12;16.60;99.90
43679;DHT22;29279;50.858;4.392;2023-08-01T01:58:38;16.60;99.90
43679;DHT22;29279;50.858;4.392;2023-08-01T02:01:03;16.50;99.90
43679;DHT22;29279;50.858;4.392;2023-08-01T02:03:29;16.50;99.90
43679;DHT22;29279;50.858;4.392;2023-08-01T02:05:55;16.40;99.90
43679;DHT22;29279;50.858;4.392;2023-08-01T02:08:20;16.40;99.90
43679;DHT22;29279;50.858;4.392;2023-08-01T02:10:47;16.40;99.90
43679;DHT22;29279;50.858;4.392;2023-08-01T02:13:13;16.50;99.90
43679;DHT22;29279;50.858;4.392;2023-08-01T02:15:38;16.40;99.90
43679;DHT22;29279;50.858;4.392;2023-08-01T02:18:04;16.40;99.90
43679;DHT22;29279;50.858;4.392;2023-08-01T02:20:29;16.40;99.90
43679;DHT22;29279;50.858;4.392;2023-08-01T02:22:55;16.30;99.90
43679;DHT22;29279;50.858;4.392;2023-08-01T02:25:21;16.30;99.90
43679;DHT22;29279;50.858;4.392;2023-08-01T02:27:46;16.30;99.90
43679;DHT22;29279;50.858;4.392;2023-08-01T02:30:12;16.40;99.90
43679;DHT22;29279;50.858;4.392;2023-08-01T02:32:37;16.50;99.90
43679;DHT22;29279;50.858;4.392;2023-08-01T02:35:03;16.50;99.90
43679;DHT22;29279;50.858;4.392;2023-08-01T02:37:29;16.50;99.90
43679;DHT22;29279;50.858;4.392;2023-08-01T02:39:55;16.50;99.90
43679;DHT22;29279;50.858;4.392;2023-08-01T02:42:20;16.50;99.90
43679;DHT22;29279;50.858;4.392;2023-08-01T02:44:46;16.50;99.90
43679;DHT22;29279;50.858;4.392;2023-08-01T02:47:12;16.50;99.90
43679;DHT22;29279;50.858;4.392;2023-08-01T02:49:37;16.40;99.90
43679;DHT22;29279;50.858;4.392;2023-08-01T02:52:03;16.40;99.90
43679;DHT22;29279;50.858;4.392;2023-08-01T02:54:29;16.40;99.90
43679;DHT22;29279;50.858;4.392;2023-08-01T02:56:55;16.40;99.90
43679;DHT22;29279;50.858;4.392;2023-08-01T02:59:20;16.50;99.90
43679;DHT22;29279;50.858;4.392;2023-08-01T03:01:48;16.50;99.90
43679;DHT22;29279;50.858;4.392;2023-08-01T03:04:13;16.50;99.90
43679;DHT22;29279;50.858;4.392;2023-08-01T03:06:40;16.50;99.90
43679;DHT22;29279;50.858;4.392;2023-08-01T03:09:06;16.60;99.90
43679;DHT22;29279;50.858;4.392;2023-08-01T03:11:37;16.60;99.90
43679;DHT22;29279;50.858;4.392;2023-08-01T03:14:03;16.60;99.90
43679;DHT22;29279;50.858;4.392;2023-08-01T03:16:30;16.50;99.90
43679;DHT22;29279;50.858;4.392;2023-08-01T03:18:56;16.70;99.90
43679;DHT22;29279;50.858;4.392;2023-08-01T03:21:22;16.70;99.90
43679;DHT22;29279;50.858;4.392;2023-08-01T03:23:48;16.70;99.90
43679;DHT22;29279;50.858;4.392;2023-08-01T03:26:13;16.60;99.90
43679;DHT22;29279;50.858;4.392;2023-08-01T03:28:40;16.60;99.90
43679;DHT22;29279;50.858;4.392;2023-08-01T03:31:06;16.60;99.90
43679;DHT22;29279;50.858;4.392;2023-08-01T03:33:33;16.60;99.90
43679;DHT22;29279;50.858;4.392;2023-08-01T03:35:59;16.60;99.90
43679;DHT22;29279;50.858;4.392;2023-08-01T03:38:24;16.40;99.90
43679;DHT22;29279;50.858;4.392;2023-08-01T03:40:50;16.40;99.90
43679;DHT22;29279;50.858;4.392;2023-08-01T03:43:16;16.30;99.90
43679;DHT22;29279;50.858;4.392;2023-08-01T03:45:41;16.30;99.90
43679;DHT22;29279;50.858;4.392;2023-08-01T03:48:07;16.20;99.90
43679;DHT22;29279;50.858;4.392;2023-08-01T03:50:33;16.30;99.90
43679;DHT22;29279;50.858;4.392;2023-08-01T03:52:58;16.40;99.90
43679;DHT22;29279;50.858;4.392;2023-08-01T03:55:24;16.50;99.90
43679;DHT22;29279;50.858;4.392;2023-08-01T03:57:50;16.60;99.90
43679;DHT22;29279;50.858;4.392;2023-08-01T04:00:15;16.80;99.90
43679;DHT22;29279;50.858;4.392;2023-08-01T04:02:44;16.70;99.90
43679;DHT22;29279;50.858;4.392;2023-08-01T04:05:10;16.70;99.90
43679;DHT22;29279;50.858;4.392;2023-08-01T04:07:37;16.60;99.90
43679;DHT22;29279;50.858;4.392;2023-08-01T04:10:04;16.60;99.90
43679;DHT22;29279;50.858;4.392;2023-08-01T04:12:31;16.60;99.90
43679;DHT22;29279;50.858;4.392;2023-08-01T04:14:58;16.40;99.90
43679;DHT22;29279;50.858;4.392;2023-08-01T04:17:23;16.40;99.90
43679;DHT22;29279;50.858;4.392;2023-08-01T04:19:49;16.30;99.90
43679;DHT22;29279;50.858;4.392;2023-08-01T04:22:15;16.10;99.90
43679;DHT22;29279;50.858;4.392;2023-08-01T04:24:41;16.20;99.90
43679;DHT22;29279;50.858;4.392;2023-08-01T04:27:07;16.20;99.90
43679;DHT22;29279;50.858;4.392;2023-08-01T04:29:32;16.30;99.90
43679;DHT22;29279;50.858;4.392;2023-08-01T04:31:58;16.30;99.90
43679;DHT22;29279;50.858;4.392;2023-08-01T04:34:24;16.30;99.90
43679;DHT22;29279;50.858;4.392;2023-08-01T04:36:49;16.30;99.90
43679;DHT22;29279;50.858;4.392;2023-08-01T04:39:15;16.40;99.90
43679;DHT22;29279;50.858;4.392;2023-08-01T04:41:41;16.30;99.90
43679;DHT22;29279;50.858;4.392;2023-08-01T04:44:06;16.20;99.90
43679;DHT22;29279;50.858;4.392;2023-08-01T04:46:32;16.20;99.90
43679;DHT22;29279;50.858;4.392;2023-08-01T04:48:58;16.10;99.90
43679;DHT22;29279;50.858;4.392;2023-08-01T04:51:27;16.10;99.90
43679;DHT22;29279;50.858;4.392;2023-08-01T04:53:53;16.00;99.90
43679;DHT22;29279;50.858;4.392;2023-08-01T04:56:18;15.90;99.90
43679;DHT22;29279;50.858;4.392;2023-08-01T04:58:44;15.90;99.90
43679;DHT22;29279;50.858;4.392;2023-08-01T05:01:10;16.00;99.90
43679;DHT22;29279;50.858;4.392;2023-08-01T05:03:35;16.00;99.90
43679;DHT22;29279;50.858;4.392;2023-08-01T05:06:01;16.00;99.90
43679;DHT22;29279;50.858;4.392;2023-08-01T05:08:27;16.00;99.90
43679;DHT22;29279;50.858;4.392;2023-08-01T05:10:52;16.00;99.90
43679;DHT22;29279;50.858;4.392;2023-08-01T05:13:19;16.00;99.90
43679;DHT22;29279;50.858;4.392;2023-08-01T05:15:45;16.00;99.90
43679;DHT22;29279;50.858;4.392;2023-08-01T05:18:15;16.20;99.90
43679;DHT22;29279;50.858;4.392;2023-08-01T05:20:41;16.20;99.90
43679;DHT22;29279;50.858;4.392;2023-08-01T05:23:07;16.20;99.90
43679;DHT22;29279;50.858;4.392;2023-08-01T05:25:33;16.20;99.90
43679;DHT22;29279;50.858;4.392;2023-08-01T05:27:58;16.20;99.90
43679;DHT22;29279;50.858;4.392;2023-08-01T05:30:24;16.20;99.90
43679;DHT22;29279;50.858;4.392;2023-08-01T05:32:50;16.30;99.90
43679;DHT22;29279;50.858;4.392;2023-08-01T05:35:16;16.20;99.90
43679;DHT22;29279;50.858;4.392;2023-08-01T05:37:42;16.20;99.90
43679;DHT22;29279;50.858;4.392;2023-08-01T05:40:08;16.20;99.90
43679;DHT22;29279;50.858;4.392;2023-08-01T05:42:34;16.30;99.90
43679;DHT22;29279;50.858;4.392;2023-08-01T05:45:00;16.20;99.90
43679;DHT22;29279;50.858;4.392;2023-08-01T05:47:25;16.30;99.90
43679;DHT22;29279;50.858;4.392;2023-08-01T05:49:51;16.30;99.90
43679;DHT22;29279;50.858;4.392;2023-08-01T05:52:17;16.30;99.90
43679;DHT22;29279;50.858;4.392;2023-08-01T05:54:42;16.30;99.90
43679;DHT22;29279;50.858;4.392;2023-08-01T05:57:08;16.40;99.90
43679;DHT22;29279;50.858;4.392;2023-08-01T05:59:34;16.40;99.90
43679;DHT22;29279;50.858;4.392;2023-08-01T06:02:00;16.50;99.90
43679;DHT22;29279;50.858;4.392;2023-08-01T06:04:25;16.50;99.90
43679;DHT22;29279;50.858;4.392;2023-08-01T06:06:52;16.60;99.90
43679;DHT22;29279;50.858;4.392;2023-08-01T06:09:17;16.60;99.90
43679;DHT22;29279;50.858;4.392;2023-08-01T06:11:43;16.50;99.90
43679;DHT22;29279;50.858;4.392;2023-08-01T06:14:09;16.70;99.90
43679;DHT22;29279;50.858;4.392;2023-08-01T06:16:35;16.60;99.90
43679;DHT22;29279;50.858;4.392;2023-08-01T06:19:01;16.50;99.90
43679;DHT22;29279;50.858;4.392;2023-08-01T06:21:27;16.50;99.90
43679;DHT22;29279;50.858;4.392;2023-08-01T06:23:52;16.50;99.90
43679;DHT22;29279;50.858;4.392;2023-08-01T06:26:18;16.50;99.90
43679;DHT22;29279;50.858;4.392;2023-08-01T06:28:44;16.60;99.90
43679;DHT22;29279;50.858;4.392;2023-08-01T06:31:09;16.70;99.90
43679;DHT22;29279;50.858;4.392;2023-08-01T06:33:35;16.80;99.90
43679;DHT22;29279;50.858;4.392;2023-08-01T06:36:00;16.90;99.90
43679;DHT22;29279;50.858;4.392;2023-08-01T06:38:26;16.90;99.90
43679;DHT22;29279;50.858;4.392;2023-08-01T06:40:52;16.90;99.90
43679;DHT22;29279;50.858;4.392;2023-08-01T06:43:17;17.00;99.90
43679;DHT22;29279;50.858;4.392;2023-08-01T06:45:43;16.90;99.90
43679;DHT22;29279;50.858;4.392;2023-08-01T06:48:09;16.80;99.90
43679;DHT22;29279;50.858;4.392;2023-08-01T06:50:34;16.80;99.90
43679;DHT22;29279;50.858;4.392;2023-08-01T06:53:01;16.90;99.90
43679;DHT22;29279;50.858;4.392;2023-08-01T06:55:27;16.90;99.90
43679;DHT22;29279;50.858;4.392;2023-08-01T06:57:52;17.00;99.90
43679;DHT22;29279;50.858;4.392;2023-08-01T07:00:18;17.10;99.90
43679;DHT22;29279;50.858;4.392;2023-08-01T07:02:44;17.10;99.90
43679;DHT22;29279;50.858;4.392;2023-08-01T07:05:10;17.10;99.90
43679;DHT22;29279;50.858;4.392;2023-08-01T07:07:39;17.00;99.90
43679;DHT22;29279;50.858;4.392;2023-08-01T07:10:05;17.10;99.90
43679;DHT22;29279;50.858;4.392;2023-08-01T07:12:31;17.20;99.90
43679;DHT22;29279;50.858;4.392;2023-08-01T07:14:56;17.20;99.90
43679;DHT22;29279;50.858;4.392;2023-08-01T07:17:22;17.10;99.90
43679;DHT22;29279;50.858;4.392;2023-08-01T07:19:48;17.10;99.90
43679;DHT22;29279;50.858;4.392;2023-08-01T07:22:14;17.20;99.90
43679;DHT22;29279;50.858;4.392;2023-08-01T07:24:39;17.30;99.90
43679;DHT22;29279;50.858;4.392;2023-08-01T07:27:05;17.30;99.90
43679;DHT22;29279;50.858;4.392;2023-08-01T07:29:31;17.40;99.90
43679;DHT22;29279;50.858;4.392;2023-08-01T07:31:57;17.40;99.90
43679;DHT22;29279;50.858;4.392;2023-08-01T07:34:22;17.50;99.90
43679;DHT22;29279;50.858;4.392;2023-08-01T07:36:48;17.50;99.90
43679;DHT22;29279;50.858;4.392;2023-08-01T07:39:15;17.50;99.90
43679;DHT22;29279;50.858;4.392;2023-08-01T07:41:40;17.60;99.90
43679;DHT22;29279;50.858;4.392;2023-08-01T07:44:06;17.60;99.90
43679;DHT22;29279;50.858;4.392;2023-08-01T07:46:32;17.60;99.90
43679;DHT22;29279;50.858;4.392;2023-08-01T07:48:58;17.60;99.90
43679;DHT22;29279;50.858;4.392;2023-08-01T07:51:25;17.60;99.90
43679;DHT22;29279;50.858;4.392;2023-08-01T07:53:52;17.60;99.90
43679;DHT22;29279;50.858;4.392;2023-08-01T07:56:19;17.60;99.90
43679;DHT22;29279;50.858;4.392;2023-08-01T07:58:45;17.80;99.90
43679;DHT22;29279;50.858;4.392;2023-08-01T08:01:11;17.80;99.90
43679;DHT22;29279;50.858;4.392;2023-08-01T08:03:36;17.70;99.90
43679;DHT22;29279;50.858;4.392;2023-08-01T08:06:02;17.70;99.90
43679;DHT22;29279;50.858;4.392;2023-08-01T08:08:29;17.80;99.90
43679;DHT22;29279;50.858;4.392;2023-08-01T08:10:55;18.00;99.90
43679;DHT22;29279;50.858;4.392;2023-08-01T08:13:21;18.20;99.90
43679;DHT22;29279;50.858;4.392;2023-08-01T08:15:47;18.30;99.90
43679;DHT22;29279;50.858;4.392;2023-08-01T08:18:13;18.20;99.90
43679;DHT22;29279;50.858;4.392;2023-08-01T08:20:43;18.10;99.90
43679;DHT22;29279;50.858;4.392;2023-08-01T08:23:10;18.10;99.90
43679;DHT22;29279;50.858;4.392;2023-08-01T08:25:36;18.20;99.90
43679;DHT22;29279;50.858;4.392;2023-08-01T08:28:02;18.40;99.90
43679;DHT22;29279;50.858;4.392;2023-08-01T08:30:28;18.50;99.90
43679;DHT22;29279;50.858;4.392;2023-08-01T08:32:54;18.70;99.90
43679;DHT22;29279;50.858;4.392;2023-08-01T08:35:19;18.80;99.90
43679;DHT22;29279;50.858;4.392;2023-08-01T08:37:45;18.90;99.90
43679;DHT22;29279;50.858;4.392;2023-08-01T08:40:12;19.10;99.90
43679;DHT22;29279;50.858;4.392;2023-08-01T08:42:39;19.30;99.90
43679;DHT22;29279;50.858;4.392;2023-08-01T08:45:06;19.60;99.90
43679;DHT22;29279;50.858;4.392;2023-08-01T08:47:36;19.60;99.90
43679;DHT22;29279;50.858;4.392;2023-08-01T08:50:04;19.80;99.90
43679;DHT22;29279;50.858;4.392;2023-08-01T08:52:30;19.90;99.90
43679;DHT22;29279;50.858;4.392;2023-08-01T08:54:56;19.90;99.90
43679;DHT22;29279;50.858;4.392;2023-08-01T08:57:26;20.00;99.90
43679;DHT22;29279;50.858;4.392;2023-08-01T08:59:52;20.00;99.90
43679;DHT22;29279;50.858;4.392;2023-08-01T09:02:18;20.00;99.90
43679;DHT22;29279;50.858;4.392;2023-08-01T09:04:44;19.90;99.90
43679;DHT22;29279;50.858;4.392;2023-08-01T09:07:10;19.80;99.90
43679;DHT22;29279;50.858;4.392;2023-08-01T09:09:39;19.80;99.90
43679;DHT22;29279;50.858;4.392;2023-08-01T09:12:06;20.10;99.90
43679;DHT22;29279;50.858;4.392;2023-08-01T09:14:33;20.20;99.90
43679;DHT22;29279;50.858;4.392;2023-08-01T09:17:08;20.20;99.90
43679;DHT22;29279;50.858;4.392;2023-08-01T09:19:34;19.80;99.90
43679;DHT22;29279;50.858;4.392;2023-08-01T09:22:00;19.70;99.90
43679;DHT22;29279;50.858;4.392;2023-08-01T09:24:26;19.90;99.90
43679;DHT22;29279;50.858;4.392;2023-08-01T09:26:52;20.30;99.90
43679;DHT22;29279;50.858;4.392;2023-08-01T09:29:18;20.70;99.90
43679;DHT22;29279;50.858;4.392;2023-08-01T09:31:45;20.90;99.90
43679;DHT22;29279;50.858;4.392;2023-08-01T09:34:22;21.00;99.90
43679;DHT22;29279;50.858;4.392;2023-08-01T09:36:48;21.00;99.90
43679;DHT22;29279;50.858;4.392;2023-08-01T09:39:19;20.90;99.90
43679;DHT22;29279;50.858;4.392;2023-08-01T09:41:45;20.70;99.90
43679;DHT22;29279;50.858;4.392;2023-08-01T09:44:20;20.60;99.90
43679;DHT22;29279;50.858;4.392;2023-08-01T09:47:00;20.50;99.90
43679;DHT22;29279;50.858;4.392;2023-08-01T09:49:27;20.40;99.90
43679;DHT22;29279;50.858;4.392;2023-08-01T09:51:53;20.50;99.90
43679;DHT22;29279;50.858;4.392;2023-08-01T09:54:21;20.50;99.90
43679;DHT22;29279;50.858;4.392;2023-08-01T09:56:48;20.50;99.90
43679;DHT22;29279;50.858;4.392;2023-08-01T09:59:25;20.70;99.90
43679;DHT22;29279;50.858;4.392;2023-08-01T10:01:52;20.80;99.90
43679;DHT22;29279;50.858;4.392;2023-08-01T10:04:21;20.70;99.90
43679;DHT22;29279;50.858;4.392;2023-08-01T10:06:56;21.00;99.90
43679;DHT22;29279;50.858;4.392;2023-08-01T10:09:22;21.20;99.90
43679;DHT22;29279;50.858;4.392;2023-08-01T10:11:49;21.40;99.90
43679;DHT22;29279;50.858;4.392;2023-08-01T10:14:17;21.40;99.90
43679;DHT22;29279;50.858;4.392;2023-08-01T10:16:43;21.30;99.90
43679;DHT22;29279;50.858;4.392;2023-08-01T10:19:09;21.40;99.90
43679;DHT22;29279;50.858;4.392;2023-08-01T10:21:35;21.50;99.90
43679;DHT22;29279;50.858;4.392;2023-08-01T10:24:03;21.70;99.90
43679;DHT22;29279;50.858;4.392;2023-08-01T10:26:30;22.00;99.90
43679;DHT22;29279;50.858;4.392;2023-08-01T10:28:56;21.80;99.90
43679;DHT22;29279;50.858;4.392;2023-08-01T10:31:24;21.60;99.90
43679;DHT22;29279;50.858;4.392;2023-08-01T10:33:50;21.50;99.90
43679;DHT22;29279;50.858;4.392;2023-08-01T10:36:20;21.60;99.90
43679;DHT22;29279;50.858;4.392;2023-08-01T10:38:50;21.90;99.90
43679;DHT22;29279;50.858;4.392;2023-08-01T10:41:31;22.30;99.90
43679;DHT22;29279;50.858;4.392;2023-08-01T10:44:14;22.50;99.90
43679;DHT22;29279;50.858;4.392;2023-08-01T10:49:16;22.30;99.90
43679;DHT22;29279;50.858;4.392;2023-08-01T10:51:42;22.80;99.90
43679;DHT22;29279;50.858;4.392;2023-08-01T10:54:25;23.40;99.90
43679;DHT22;29279;50.858;4.392;2023-08-01T10:56:53;23.60;99.90
43679;DHT22;29279;50.858;4.392;2023-08-01T10:59:19;23.60;99.90
43679;DHT22;29279;50.858;4.392;2023-08-01T11:01:52;23.10;99.90
43679;DHT22;29279;50.858;4.392;2023-08-01T11:04:20;22.70;99.90
43679;DHT22;29279;50.858;4.392;2023-08-01T11:06:48;22.70;99.90
43679;DHT22;29279;50.858;4.392;2023-08-01T11:09:21;23.30;99.90
43679;DHT22;29279;50.858;4.392;2023-08-01T11:11:49;23.30;99.90
43679;DHT22;29279;50.858;4.392;2023-08-01T11:14:16;23.70;99.90
43679;DHT22;29279;50.858;4.392;2023-08-01T11:16:43;24.30;99.90
43679;DHT22;29279;50.858;4.392;2023-08-01T11:19:26;24.10;99.90
43679;DHT22;29279;50.858;4.392;2023-08-01T11:21:52;23.50;99.90
43679;DHT22;29279;50.858;4.392;2023-08-01T11:24:19;23.30;99.90
43679;DHT22;29279;50.858;4.392;2023-08-01T11:26:46;23.00;99.90
43679;DHT22;29279;50.858;4.392;2023-08-01T11:29:13;23.00;99.90
43679;DHT22;29279;50.858;4.392;2023-08-01T11:31:40;24.00;99.90
43679;DHT22;29279;50.858;4.392;2023-08-01T11:34:08;24.50;99.90
43679;DHT22;29279;50.858;4.392;2023-08-01T11:36:36;25.80;99.90
43679;DHT22;29279;50.858;4.392;2023-08-01T11:39:02;26.20;99.40
43679;DHT22;29279;50.858;4.392;2023-08-01T11:41:28;27.20;99.60
43679;DHT22;29279;50.858;4.392;2023-08-01T11:43:54;27.40;97.40
43679;DHT22;29279;50.858;4.392;2023-08-01T11:46:21;27.90;97.20
43679;DHT22;29279;50.858;4.392;2023-08-01T11:48:47;28.10;95.80
43679;DHT22;29279;50.858;4.392;2023-08-01T11:51:16;27.20;95.20
43679;DHT22;29279;50.858;4.392;2023-08-01T11:53:41;26.60;95.40
43679;DHT22;29279;50.858;4.392;2023-08-01T11:56:07;26.30;95.90
43679;DHT22;29279;50.858;4.392;2023-08-01T11:58:34;26.10;95.70
43679;DHT22;29279;50.858;4.392;2023-08-01T12:01:11;25.00;97.00
43679;DHT22;29279;50.858;4.392;2023-08-01T12:03:44;24.30;98.50
43679;DHT22;29279;50.858;4.392;2023-08-01T12:06:10;24.00;98.30
43679;DHT22;29279;50.858;4.392;2023-08-01T12:08:38;23.50;99.90
43679;DHT22;29279;50.858;4.392;2023-08-01T12:11:03;23.00;99.90
43679;DHT22;29279;50.858;4.392;2023-08-01T12:13:29;22.60;99.90
43679;DHT22;29279;50.858;4.392;2023-08-01T12:15:56;22.60;99.90
43679;DHT22;29279;50.858;4.392;2023-08-01T12:18:27;22.60;99.90
43679;DHT22;29279;50.858;4.392;2023-08-01T12:20:53;22.90;99.90
43679;DHT22;29279;50.858;4.392;2023-08-01T12:23:19;23.10;99.90
43679;DHT22;29279;50.858;4.392;2023-08-01T12:25:46;23.00;99.90
43679;DHT22;29279;50.858;4.392;2023-08-01T12:28:12;23.50;99.90
43679;DHT22;29279;50.858;4.392;2023-08-01T12:30:40;23.80;99.90
43679;DHT22;29279;50.858;4.392;2023-08-01T12:33:07;24.00;99.90
43679;DHT22;29279;50.858;4.392;2023-08-01T12:35:32;23.30;99.90
43679;DHT22;29279;50.858;4.392;2023-08-01T12:37:58;22.70;99.90
43679;DHT22;29279;50.858;4.392;2023-08-01T12:40:24;22.30;99.90
43679;DHT22;29279;50.858;4.392;2023-08-01T12:42:49;22.00;99.90
43679;DHT22;29279;50.858;4.392;2023-08-01T12:45:15;21.60;99.90
43679;DHT22;29279;50.858;4.392;2023-08-01T12:47:41;21.40;99.90
43679;DHT22;29279;50.858;4.392;2023-08-01T12:50:07;21.30;99.90
43679;DHT22;29279;50.858;4.392;2023-08-01T12:52:32;21.30;99.90
43679;DHT22;29279;50.858;4.392;2023-08-01T12:54:58;21.30;99.90
43679;DHT22;29279;50.858;4.392;2023-08-01T12:57:24;21.20;99.90
43679;DHT22;29279;50.858;4.392;2023-08-01T12:59:49;21.10;99.90
43679;DHT22;29279;50.858;4.392;2023-08-01T13:02:15;20.90;99.90
43679;DHT22;29279;50.858;4.392;2023-08-01T13:04:41;20.90;99.90
43679;DHT22;29279;50.858;4.392;2023-08-01T13:07:06;20.70;99.90
43679;DHT22;29279;50.858;4.392;2023-08-01T13:09:32;20.60;99.90
43679;DHT22;29279;50.858;4.392;2023-08-01T13:11:57;20.60;99.90
43679;DHT22;29279;50.858;4.392;2023-08-01T13:14:25;20.80;99.90
43679;DHT22;29279;50.858;4.392;2023-08-01T13:16:51;21.30;99.90
43679;DHT22;29279;50.858;4.392;2023-08-01T13:19:17;22.30;99.90
43679;DHT22;29279;50.858;4.392;2023-08-01T13:21:42;24.40;99.90
43679;DHT22;29279;50.858;4.392;2023-08-01T13:24:08;26.10;99.90
43679;DHT22;29279;50.858;4.392;2023-08-01T13:26:35;27.30;97.70
43679;DHT22;29279;50.858;4.392;2023-08-01T13:29:01;27.60;97.20
43679;DHT22;29279;50.858;4.392;2023-08-01T13:31:27;27.60;96.90
43679;DHT22;29279;50.858;4.392;2023-08-01T13:33:54;28.10;96.30
43679;DHT22;29279;50.858;4.392;2023-08-01T13:36:20;27.90;95.80
43679;DHT22;29279;50.858;4.392;2023-08-01T13:38:46;28.10;95.60
43679;DHT22;29279;50.858;4.392;2023-08-01T13:41:12;29.20;94.10
43679;DHT22;29279;50.858;4.392;2023-08-01T13:43:37;27.90;94.50
43679;DHT22;29279;50.858;4.392;2023-08-01T13:46:14;26.90;94.50
43679;DHT22;29279;50.858;4.392;2023-08-01T13:48:41;26.90;93.70
43679;DHT22;29279;50.858;4.392;2023-08-01T13:51:07;26.40;94.30
43679;DHT22;29279;50.858;4.392;2023-08-01T13:53:33;27.30;93.10
43679;DHT22;29279;50.858;4.392;2023-08-01T13:55:59;28.50;92.30
43679;DHT22;29279;50.858;4.392;2023-08-01T13:58:25;29.40;91.60
43679;DHT22;29279;50.858;4.392;2023-08-01T14:00:50;29.10;91.10
43679;DHT22;29279;50.858;4.392;2023-08-01T14:03:16;27.70;92.00
43679;DHT22;29279;50.858;4.392;2023-08-01T14:05:42;25.90;93.50
43679;DHT22;29279;50.858;4.392;2023-08-01T14:08:07;24.70;95.10
43679;DHT22;29279;50.858;4.392;2023-08-01T14:10:33;23.90;96.40
43679;DHT22;29279;50.858;4.392;2023-08-01T14:12:59;23.30;96.80
43679;DHT22;29279;50.858;4.392;2023-08-01T14:15:24;22.90;97.80
43679;DHT22;29279;50.858;4.392;2023-08-01T14:17:50;22.40;97.10
43679;DHT22;29279;50.858;4.392;2023-08-01T14:20:16;22.20;97.90
43679;DHT22;29279;50.858;4.392;2023-08-01T14:22:42;21.80;98.10
43679;DHT22;29279;50.858;4.392;2023-08-01T14:25:11;21.50;99.00
43679;DHT22;29279;50.858;4.392;2023-08-01T14:27:37;21.30;99.70
43679;DHT22;29279;50.858;4.392;2023-08-01T14:30:03;21.10;99.70
43679;DHT22;29279;50.858;4.392;2023-08-01T14:32:37;21.00;99.90
43679;DHT22;29279;50.858;4.392;2023-08-01T14:35:02;21.00;99.90
43679;DHT22;29279;50.858;4.392;2023-08-01T14:37:28;21.00;99.90
43679;DHT22;29279;50.858;4.392;2023-08-01T14:39:55;21.00;99.90
43679;DHT22;29279;50.858;4.392;2023-08-01T14:42:20;21.00;99.90
43679;DHT22;29279;50.858;4.392;2023-08-01T14:44:52;21.10;99.90
43679;DHT22;29279;50.858;4.392;2023-08-01T14:47:18;21.00;99.90
43679;DHT22;29279;50.858;4.392;2023-08-01T14:49:44;21.10;99.90
43679;DHT22;29279;50.858;4.392;2023-08-01T14:52:10;21.40;99.90
43679;DHT22;29279;50.858;4.392;2023-08-01T14:54:36;21.60;99.90
43679;DHT22;29279;50.858;4.392;2023-08-01T14:57:04;21.60;99.90
43679;DHT22;29279;50.858;4.392;2023-08-01T14:59:29;21.70;99.90
43679;DHT22;29279;50.858;4.392;2023-08-01T15:01:55;21.80;99.90
43679;DHT22;29279;50.858;4.392;2023-08-01T15:04:20;21.70;99.90
43679;DHT22;29279;50.858;4.392;2023-08-01T15:06:46;21.70;99.90
43679;DHT22;29279;50.858;4.392;2023-08-01T15:09:12;21.50;99.90
43679;DHT22;29279;50.858;4.392;2023-08-01T15:11:37;21.50;99.90
43679;DHT22;29279;50.858;4.392;2023-08-01T15:14:03;21.50;99.90
43679;DHT22;29279;50.858;4.392;2023-08-01T15:16:28;21.50;99.90
43679;DHT22;29279;50.858;4.392;2023-08-01T15:18:54;21.00;99.90
43679;DHT22;29279;50.858;4.392;2023-08-01T15:21:20;20.60;99.90
43679;DHT22;29279;50.858;4.392;2023-08-01T15:23:49;20.20;99.90
43679;DHT22;29279;50.858;4.392;2023-08-01T15:26:15;19.90;99.90
43679;DHT22;29279;50.858;4.392;2023-08-01T15:28:40;19.70;99.90